DLH648 EDDF-UAAA
Flight info
| Callsign | DLH648 |
|---|---|
| Flight time | N/A |
| Altitude | 35000 |
| Route | CINDY8S CINDY Z74 HAREM DCT ASLEP DCT TAKUT L603 BESNI/N0472F370 L605 MIQ DCT ALUTU DCT BIBAG Q104 AKIMA DCT ARSIN DCT GAZDA DCT TEGRI DCT DINRO N743 UDROS DCT CRM/N0469F390 DCT ROLIN DCT TAGAR DCT BT DCT BARAD M747 LUSAL N199 RASAM L88 METKA B476 TIMGA A480 OTBOR/K0876F390 N147 ELAHA Z621 ARBOL M610 TIPSA TIPSA1D |
| Aircraft | A343/H-SDE2E3FGHIJ4J5M1RWXY/LB1D1 |
Departure
| Time | N/A |
|---|---|
| Airport | Frankfurt Main Airport (EDDF) |
Arrival
| Time | 2026-04-29 20:38 |
|---|---|
| Airport | Almaty International Airport (UAAA) |
| Time | Latitude | Longitude | Altitude | Speed | Heading |
|---|---|---|---|---|---|
| 2026-04-29 15:40 | 45.11687 | 24.82956 | 35117 ft | 547 kts | 116° |
| 2026-04-29 15:41 | 45.10094 | 24.87773 | 35118 ft | 547 kts | 116° |
| 2026-04-29 15:41 | 45.07384 | 24.95945 | 35118 ft | 548 kts | 117° |
| 2026-04-29 15:42 | 45.03606 | 25.07299 | 35116 ft | 548 kts | 117° |
| 2026-04-29 15:42 | 45.00894 | 25.15416 | 35123 ft | 548 kts | 117° |
| 2026-04-29 15:43 | 44.97633 | 25.25147 | 35124 ft | 548 kts | 117° |
| 2026-04-29 15:43 | 44.94359 | 25.34877 | 35122 ft | 548 kts | 117° |
| 2026-04-29 15:44 | 44.91098 | 25.44537 | 35129 ft | 548 kts | 117° |
| 2026-04-29 15:44 | 44.87812 | 25.54234 | 35135 ft | 548 kts | 117° |
| 2026-04-29 15:45 | 44.84515 | 25.63927 | 35145 ft | 548 kts | 118° |
| 2026-04-29 15:45 | 44.81212 | 25.73604 | 35125 ft | 548 kts | 117° |
| 2026-04-29 15:46 | 44.77898 | 25.83279 | 35137 ft | 549 kts | 118° |
| 2026-04-29 15:46 | 44.74569 | 25.92961 | 35150 ft | 549 kts | 117° |
| 2026-04-29 15:47 | 44.71233 | 26.02630 | 35155 ft | 549 kts | 118° |
| 2026-04-29 15:47 | 44.67892 | 26.12280 | 35157 ft | 549 kts | 118° |
| 2026-04-29 15:48 | 44.64542 | 26.21919 | 35157 ft | 549 kts | 118° |
| 2026-04-29 15:48 | 44.61205 | 26.31485 | 35144 ft | 549 kts | 118° |
| 2026-04-29 15:49 | 44.57843 | 26.41091 | 35143 ft | 548 kts | 118° |
| 2026-04-29 15:49 | 44.54469 | 26.50697 | 35133 ft | 548 kts | 118° |
| 2026-04-29 15:50 | 44.51088 | 26.60288 | 35134 ft | 548 kts | 118° |
| 2026-04-29 15:50 | 44.47705 | 26.69854 | 35138 ft | 548 kts | 118° |
| 2026-04-29 15:51 | 44.44312 | 26.79412 | 35129 ft | 548 kts | 118° |
| 2026-04-29 15:51 | 44.40913 | 26.88951 | 35121 ft | 548 kts | 118° |
| 2026-04-29 15:52 | 44.37522 | 26.98437 | 35124 ft | 548 kts | 118° |
| 2026-04-29 15:52 | 44.34110 | 27.07950 | 35122 ft | 548 kts | 118° |
| 2026-04-29 15:53 | 44.30686 | 27.17462 | 35120 ft | 548 kts | 118° |
| 2026-04-29 15:53 | 44.27252 | 27.26966 | 35117 ft | 549 kts | 118° |
| 2026-04-29 15:54 | 44.23804 | 27.36478 | 35115 ft | 549 kts | 118° |
| 2026-04-29 15:54 | 44.20352 | 27.45970 | 35106 ft | 549 kts | 118° |
| 2026-04-29 15:55 | 44.16893 | 27.55448 | 35114 ft | 548 kts | 118° |
| 2026-04-29 15:55 | 44.13428 | 27.64908 | 35113 ft | 548 kts | 118° |
| 2026-04-29 15:56 | 44.09960 | 27.74347 | 35133 ft | 548 kts | 119° |
| 2026-04-29 15:56 | 44.06478 | 27.83790 | 35116 ft | 548 kts | 118° |
| 2026-04-29 15:57 | 44.03016 | 27.93145 | 35123 ft | 548 kts | 118° |
| 2026-04-29 15:57 | 43.99520 | 28.02563 | 35133 ft | 547 kts | 118° |
| 2026-04-29 15:58 | 43.96020 | 28.11957 | 35135 ft | 549 kts | 119° |
| 2026-04-29 15:58 | 43.92506 | 28.21359 | 35139 ft | 549 kts | 119° |
| 2026-04-29 15:59 | 43.88978 | 28.30766 | 35140 ft | 549 kts | 119° |
| 2026-04-29 15:59 | 43.85448 | 28.40146 | 35144 ft | 549 kts | 119° |
| 2026-04-29 16:00 | 43.81906 | 28.49527 | 35152 ft | 549 kts | 119° |
| 2026-04-29 16:00 | 43.78356 | 28.58898 | 35159 ft | 549 kts | 119° |
| 2026-04-29 16:01 | 43.74801 | 28.68253 | 35165 ft | 549 kts | 119° |
| 2026-04-29 16:01 | 43.71247 | 28.77571 | 35166 ft | 547 kts | 119° |
| 2026-04-29 16:02 | 43.67159 | 28.86304 | 35169 ft | 544 kts | 128° |
| 2026-04-29 16:02 | 43.62748 | 28.94807 | 35158 ft | 543 kts | 129° |
| 2026-04-29 16:03 | 43.58297 | 29.03231 | 35157 ft | 543 kts | 129° |
| 2026-04-29 16:03 | 43.53841 | 29.11660 | 35163 ft | 543 kts | 129° |
| 2026-04-29 16:04 | 43.49395 | 29.20076 | 35142 ft | 543 kts | 129° |
| 2026-04-29 16:04 | 43.44985 | 29.28410 | 35169 ft | 540 kts | 129° |
| 2026-04-29 16:05 | 43.40562 | 29.36748 | 35168 ft | 539 kts | 129° |
| 2026-04-29 16:05 | 43.36132 | 29.45071 | 35167 ft | 539 kts | 129° |
| 2026-04-29 16:06 | 43.31698 | 29.53378 | 35168 ft | 538 kts | 129° |
| 2026-04-29 16:06 | 43.27264 | 29.61661 | 35168 ft | 538 kts | 129° |
| 2026-04-29 16:07 | 43.22822 | 29.69938 | 35170 ft | 538 kts | 129° |
| 2026-04-29 16:07 | 43.18372 | 29.78204 | 35170 ft | 538 kts | 129° |
| 2026-04-29 16:08 | 43.13922 | 29.86449 | 35171 ft | 538 kts | 129° |
| 2026-04-29 16:08 | 43.09465 | 29.94684 | 35162 ft | 538 kts | 129° |
| 2026-04-29 16:09 | 43.05036 | 30.02845 | 35158 ft | 537 kts | 129° |
| 2026-04-29 16:09 | 43.00581 | 30.11032 | 35171 ft | 536 kts | 129° |
| 2026-04-29 16:10 | 42.96130 | 30.19187 | 35163 ft | 535 kts | 129° |
| 2026-04-29 16:10 | 42.91680 | 30.27319 | 35170 ft | 535 kts | 130° |
| 2026-04-29 16:11 | 42.87221 | 30.35443 | 35170 ft | 534 kts | 130° |
| 2026-04-29 16:11 | 42.82762 | 30.43546 | 35170 ft | 534 kts | 130° |
| 2026-04-29 16:12 | 42.78294 | 30.51644 | 35167 ft | 534 kts | 130° |
| 2026-04-29 16:12 | 42.74177 | 30.60078 | 35168 ft | 538 kts | 116° |
| 2026-04-29 16:13 | 42.71629 | 30.69650 | 35170 ft | 539 kts | 107° |
| 2026-04-29 16:13 | 42.69494 | 30.79434 | 35170 ft | 540 kts | 106° |
| 2026-04-29 16:14 | 42.67419 | 30.89187 | 35171 ft | 540 kts | 106° |
| 2026-04-29 16:14 | 42.65292 | 30.98991 | 35170 ft | 540 kts | 107° |
| 2026-04-29 16:15 | 42.63136 | 31.08770 | 35169 ft | 540 kts | 107° |
| 2026-04-29 16:15 | 42.60966 | 31.18540 | 35171 ft | 540 kts | 107° |
| 2026-04-29 16:16 | 42.58791 | 31.28293 | 35169 ft | 540 kts | 107° |
| 2026-04-29 16:16 | 42.56609 | 31.38035 | 35165 ft | 540 kts | 107° |
| 2026-04-29 16:17 | 42.54431 | 31.47722 | 35168 ft | 540 kts | 107° |
| 2026-04-29 16:17 | 42.52220 | 31.57510 | 35166 ft | 540 kts | 107° |
| 2026-04-29 16:18 | 42.50028 | 31.67168 | 35168 ft | 540 kts | 107° |
| 2026-04-29 16:18 | 42.47812 | 31.76895 | 35165 ft | 539 kts | 107° |
| 2026-04-29 16:19 | 42.45590 | 31.86600 | 35165 ft | 539 kts | 107° |
| 2026-04-29 16:19 | 42.43361 | 31.96295 | 35165 ft | 539 kts | 107° |
| 2026-04-29 16:20 | 42.41124 | 32.05981 | 35166 ft | 539 kts | 107° |
| 2026-04-29 16:20 | 42.38876 | 32.15675 | 35168 ft | 539 kts | 107° |
| 2026-04-29 16:21 | 42.36622 | 32.25350 | 35164 ft | 539 kts | 107° |
| 2026-04-29 16:21 | 42.34375 | 32.34957 | 35157 ft | 539 kts | 107° |
| 2026-04-29 16:22 | 42.32106 | 32.44615 | 35163 ft | 539 kts | 108° |
| 2026-04-29 16:22 | 42.29830 | 32.54260 | 35164 ft | 540 kts | 108° |
| 2026-04-29 16:23 | 42.27536 | 32.63939 | 35159 ft | 541 kts | 108° |
| 2026-04-29 16:23 | 42.25234 | 32.73613 | 35156 ft | 541 kts | 108° |
| 2026-04-29 16:24 | 42.22924 | 32.83278 | 35156 ft | 541 kts | 108° |
| 2026-04-29 16:24 | 42.20606 | 32.92936 | 35157 ft | 541 kts | 108° |
| 2026-04-29 16:25 | 42.18282 | 33.02578 | 35156 ft | 541 kts | 108° |
| 2026-04-29 16:25 | 42.15950 | 33.12215 | 35160 ft | 540 kts | 108° |
| 2026-04-29 16:26 | 42.13628 | 33.21769 | 35157 ft | 540 kts | 108° |
| 2026-04-29 16:26 | 42.11281 | 33.31385 | 35157 ft | 540 kts | 108° |
| 2026-04-29 16:27 | 42.08927 | 33.40989 | 35155 ft | 539 kts | 108° |
| 2026-04-29 16:27 | 42.06568 | 33.50574 | 35159 ft | 539 kts | 108° |
| 2026-04-29 16:28 | 42.04198 | 33.60166 | 35153 ft | 539 kts | 108° |
| 2026-04-29 16:28 | 42.02226 | 33.68117 | 35159 ft | 539 kts | 108° |
| 2026-04-29 16:29 | 41.99846 | 33.77674 | 35162 ft | 539 kts | 109° |
| 2026-04-29 16:29 | 41.97458 | 33.87228 | 35157 ft | 539 kts | 109° |
| 2026-04-29 16:30 | 41.95065 | 33.96762 | 35159 ft | 538 kts | 109° |
| 2026-04-29 16:30 | 41.92665 | 34.06280 | 35169 ft | 537 kts | 109° |
| 2026-04-29 16:31 | 41.90264 | 34.15773 | 35165 ft | 538 kts | 109° |
| 2026-04-29 16:31 | 41.87851 | 34.25272 | 35151 ft | 537 kts | 109° |
| 2026-04-29 16:32 | 41.85453 | 34.34670 | 35151 ft | 535 kts | 109° |
| 2026-04-29 16:32 | 41.83036 | 34.44105 | 35153 ft | 535 kts | 109° |
| 2026-04-29 16:33 | 41.79391 | 34.58273 | 35145 ft | 535 kts | 109° |
| 2026-04-29 16:33 | 41.76959 | 34.67679 | 35143 ft | 535 kts | 109° |
| 2026-04-29 16:34 | 41.74516 | 34.77089 | 35143 ft | 534 kts | 109° |
| 2026-04-29 16:34 | 41.72064 | 34.86499 | 35154 ft | 534 kts | 109° |
| 2026-04-29 16:35 | 41.69609 | 34.95881 | 35165 ft | 534 kts | 109° |
| 2026-04-29 16:35 | 41.67162 | 35.05197 | 35161 ft | 535 kts | 109° |
| 2026-04-29 16:36 | 41.64689 | 35.14577 | 35173 ft | 535 kts | 109° |
| 2026-04-29 16:36 | 41.62208 | 35.23947 | 35158 ft | 534 kts | 109° |
| 2026-04-29 16:37 | 41.59723 | 35.33303 | 35162 ft | 534 kts | 109° |
| 2026-04-29 16:37 | 41.57650 | 35.41079 | 35164 ft | 534 kts | 109° |
| 2026-04-29 16:38 | 41.54731 | 35.51985 | 35168 ft | 533 kts | 109° |
| 2026-04-29 16:38 | 41.52228 | 35.61297 | 35166 ft | 533 kts | 109° |
| 2026-04-29 16:39 | 41.49718 | 35.70599 | 35149 ft | 533 kts | 110° |
| 2026-04-29 16:39 | 41.47204 | 35.79884 | 35170 ft | 533 kts | 110° |
| 2026-04-29 16:40 | 41.44694 | 35.89120 | 35169 ft | 533 kts | 110° |
| 2026-04-29 16:40 | 41.42161 | 35.98404 | 35175 ft | 533 kts | 110° |
| 2026-04-29 16:41 | 41.39623 | 36.07676 | 35182 ft | 532 kts | 110° |
| 2026-04-29 16:41 | 41.37084 | 36.16913 | 35190 ft | 531 kts | 110° |
| 2026-04-29 16:42 | 41.34538 | 36.26143 | 35194 ft | 531 kts | 110° |
| 2026-04-29 16:42 | 41.31987 | 36.35360 | 35191 ft | 530 kts | 110° |
| 2026-04-29 16:43 | 41.29435 | 36.44545 | 35205 ft | 528 kts | 110° |
| 2026-04-29 16:43 | 41.27479 | 36.53857 | 35208 ft | 525 kts | 95° |
| 2026-04-29 16:44 | 41.27356 | 36.58695 | 35184 ft | 521 kts | 83° |
| 2026-04-29 16:44 | 41.27798 | 36.63453 | 35185 ft | 518 kts | 77° |
| 2026-04-29 16:44 | 41.29106 | 36.72876 | 35190 ft | 517 kts | 75° |
| 2026-04-29 16:45 | 41.30545 | 36.82233 | 35193 ft | 516 kts | 75° |
| 2026-04-29 16:45 | 41.31955 | 36.91602 | 35199 ft | 517 kts | 75° |
| 2026-04-29 16:46 | 41.33326 | 37.00982 | 35199 ft | 517 kts | 75° |
| 2026-04-29 16:46 | 41.34680 | 37.10386 | 35211 ft | 517 kts | 76° |
| 2026-04-29 16:47 | 41.36026 | 37.19793 | 35175 ft | 517 kts | 76° |
| 2026-04-29 16:47 | 41.37364 | 37.29196 | 35192 ft | 516 kts | 76° |
| 2026-04-29 16:48 | 41.38689 | 37.38564 | 35192 ft | 515 kts | 76° |
| 2026-04-29 16:48 | 41.40008 | 37.47936 | 35186 ft | 515 kts | 76° |
| 2026-04-29 16:49 | 41.41313 | 37.57263 | 35181 ft | 515 kts | 77° |
| 2026-04-29 16:49 | 41.42615 | 37.66639 | 35184 ft | 515 kts | 77° |
| 2026-04-29 16:50 | 41.43913 | 37.76038 | 35181 ft | 515 kts | 77° |
| 2026-04-29 16:50 | 41.45200 | 37.85422 | 35182 ft | 512 kts | 77° |
| 2026-04-29 16:51 | 41.46473 | 37.94763 | 35188 ft | 511 kts | 78° |
| 2026-04-29 16:51 | 41.47738 | 38.04095 | 35191 ft | 511 kts | 78° |
| 2026-04-29 16:52 | 41.48995 | 38.13431 | 35199 ft | 511 kts | 78° |
| 2026-04-29 16:52 | 41.50237 | 38.22718 | 35187 ft | 511 kts | 78° |
| 2026-04-29 16:53 | 41.51487 | 38.32123 | 35203 ft | 511 kts | 78° |
| 2026-04-29 16:53 | 41.52713 | 38.41407 | 35189 ft | 510 kts | 78° |
| 2026-04-29 16:54 | 41.53934 | 38.50718 | 35193 ft | 510 kts | 78° |
| 2026-04-29 16:54 | 41.55150 | 38.60048 | 35182 ft | 510 kts | 79° |
| 2026-04-29 16:55 | 41.56359 | 38.69381 | 35179 ft | 510 kts | 79° |
| 2026-04-29 16:55 | 41.57559 | 38.78709 | 35187 ft | 510 kts | 79° |
| 2026-04-29 16:56 | 41.58752 | 38.88045 | 35189 ft | 509 kts | 80° |
| 2026-04-29 16:56 | 41.59935 | 38.97368 | 35186 ft | 509 kts | 80° |
| 2026-04-29 16:57 | 41.61102 | 39.06635 | 35186 ft | 509 kts | 80° |
| 2026-04-29 16:57 | 41.62270 | 39.15958 | 35182 ft | 509 kts | 80° |
| 2026-04-29 16:58 | 41.63430 | 39.25287 | 35181 ft | 509 kts | 80° |
| 2026-04-29 16:58 | 41.64581 | 39.34613 | 35172 ft | 509 kts | 80° |
| 2026-04-29 16:59 | 41.65727 | 39.43950 | 35180 ft | 508 kts | 80° |
| 2026-04-29 16:59 | 41.66862 | 39.53270 | 35189 ft | 508 kts | 81° |
| 2026-04-29 17:00 | 41.67990 | 39.62596 | 35186 ft | 508 kts | 81° |
| 2026-04-29 17:00 | 41.69111 | 39.71938 | 35185 ft | 508 kts | 81° |
| 2026-04-29 17:01 | 41.70225 | 39.81280 | 35184 ft | 508 kts | 81° |
| 2026-04-29 17:01 | 41.71331 | 39.90621 | 35184 ft | 508 kts | 81° |
| 2026-04-29 17:02 | 41.72424 | 39.99912 | 35184 ft | 508 kts | 82° |
| 2026-04-29 17:02 | 41.73513 | 40.09249 | 35185 ft | 507 kts | 82° |
| 2026-04-29 17:03 | 41.74594 | 40.18583 | 35185 ft | 507 kts | 82° |
| 2026-04-29 17:03 | 41.75669 | 40.27929 | 35184 ft | 507 kts | 82° |
| 2026-04-29 17:04 | 41.76735 | 40.37269 | 35182 ft | 507 kts | 82° |
| 2026-04-29 17:04 | 41.77796 | 40.46632 | 35192 ft | 508 kts | 82° |
| 2026-04-29 17:05 | 41.78850 | 40.56010 | 35183 ft | 508 kts | 82° |
| 2026-04-29 17:05 | 41.79986 | 40.65367 | 35195 ft | 509 kts | 77° |
| 2026-04-29 17:06 | 41.81761 | 40.74491 | 35198 ft | 509 kts | 75° |
| 2026-04-29 17:06 | 41.83675 | 40.83660 | 35186 ft | 510 kts | 75° |
| 2026-04-29 17:07 | 41.85282 | 40.91290 | 35191 ft | 511 kts | 75° |
| 2026-04-29 17:07 | 41.87523 | 41.02027 | 35188 ft | 511 kts | 75° |
| 2026-04-29 17:08 | 41.89423 | 41.11219 | 35192 ft | 511 kts | 75° |
| 2026-04-29 17:08 | 41.91314 | 41.20422 | 35187 ft | 512 kts | 75° |
| 2026-04-29 17:09 | 41.93190 | 41.29593 | 35181 ft | 513 kts | 75° |
| 2026-04-29 17:09 | 41.95077 | 41.38854 | 35182 ft | 513 kts | 76° |
| 2026-04-29 17:10 | 41.96953 | 41.48106 | 35187 ft | 513 kts | 76° |
| 2026-04-29 17:10 | 41.98826 | 41.57382 | 35181 ft | 514 kts | 76° |
| 2026-04-29 17:11 | 42.00693 | 41.66672 | 35185 ft | 514 kts | 76° |
| 2026-04-29 17:11 | 42.02550 | 41.75959 | 35182 ft | 514 kts | 76° |
| 2026-04-29 17:12 | 42.04402 | 41.85257 | 35177 ft | 514 kts | 76° |
| 2026-04-29 17:12 | 42.05625 | 41.91422 | 35167 ft | 514 kts | 76° |
| 2026-04-29 17:13 | 42.08068 | 42.03798 | 35174 ft | 513 kts | 76° |
| 2026-04-29 17:13 | 42.09893 | 42.13096 | 35159 ft | 513 kts | 76° |
| 2026-04-29 17:14 | 42.11710 | 42.22390 | 35159 ft | 513 kts | 77° |
| 2026-04-29 17:14 | 42.13215 | 42.30128 | 35167 ft | 513 kts | 77° |
| 2026-04-29 17:15 | 42.15017 | 42.39428 | 35164 ft | 513 kts | 77° |
| 2026-04-29 17:15 | 42.17104 | 42.50255 | 35149 ft | 513 kts | 77° |
| 2026-04-29 17:16 | 42.18603 | 42.58068 | 35155 ft | 513 kts | 77° |
| 2026-04-29 17:16 | 42.20370 | 42.67319 | 35155 ft | 512 kts | 77° |
| 2026-04-29 17:17 | 42.22137 | 42.76619 | 35156 ft | 512 kts | 77° |
| 2026-04-29 17:17 | 42.23898 | 42.85925 | 35155 ft | 512 kts | 77° |
| 2026-04-29 17:18 | 42.25653 | 42.95247 | 35157 ft | 512 kts | 77° |
| 2026-04-29 17:18 | 42.26742 | 43.04680 | 35153 ft | 507 kts | 93° |
| 2026-04-29 17:19 | 42.26448 | 43.09393 | 35154 ft | 502 kts | 104° |
| 2026-04-29 17:19 | 42.25541 | 43.13902 | 35159 ft | 496 kts | 114° |
| 2026-04-29 17:19 | 42.22948 | 43.22510 | 35154 ft | 495 kts | 117° |
| 2026-04-29 17:20 | 42.20148 | 43.30982 | 35160 ft | 494 kts | 118° |
| 2026-04-29 17:20 | 42.17344 | 43.39444 | 35159 ft | 494 kts | 118° |
| 2026-04-29 17:21 | 42.14565 | 43.47922 | 35144 ft | 494 kts | 117° |
| 2026-04-29 17:21 | 42.11798 | 43.56394 | 35153 ft | 494 kts | 117° |
| 2026-04-29 17:22 | 42.08914 | 43.64764 | 35153 ft | 490 kts | 124° |
| 2026-04-29 17:22 | 42.05310 | 43.72445 | 35146 ft | 488 kts | 127° |
| 2026-04-29 17:23 | 42.01505 | 43.80064 | 35137 ft | 487 kts | 128° |
| 2026-04-29 17:23 | 41.97722 | 43.87553 | 35137 ft | 487 kts | 128° |
| 2026-04-29 17:24 | 41.93916 | 43.95093 | 35130 ft | 488 kts | 128° |
| 2026-04-29 17:24 | 41.90112 | 44.02637 | 35122 ft | 487 kts | 128° |
| 2026-04-29 17:25 | 41.86313 | 44.10165 | 35118 ft | 487 kts | 128° |
| 2026-04-29 17:25 | 41.82505 | 44.17687 | 35116 ft | 487 kts | 128° |
| 2026-04-29 17:26 | 41.78692 | 44.25198 | 35113 ft | 487 kts | 129° |
| 2026-04-29 17:26 | 41.74874 | 44.32701 | 35116 ft | 487 kts | 129° |
| 2026-04-29 17:27 | 41.71050 | 44.40196 | 35113 ft | 487 kts | 129° |
| 2026-04-29 17:27 | 41.67224 | 44.47680 | 35103 ft | 487 kts | 129° |
| 2026-04-29 17:28 | 41.63417 | 44.55106 | 35110 ft | 487 kts | 129° |
| 2026-04-29 17:28 | 41.59577 | 44.62579 | 35105 ft | 487 kts | 129° |
| 2026-04-29 17:29 | 41.55732 | 44.70043 | 35105 ft | 487 kts | 129° |
| 2026-04-29 17:29 | 41.52536 | 44.76233 | 35104 ft | 487 kts | 129° |
| 2026-04-29 17:30 | 41.48030 | 44.84941 | 35107 ft | 487 kts | 129° |
| 2026-04-29 17:30 | 41.44197 | 44.92327 | 35107 ft | 487 kts | 129° |
| 2026-04-29 17:31 | 41.40331 | 44.99758 | 35099 ft | 488 kts | 129° |
| 2026-04-29 17:31 | 41.36562 | 45.07307 | 35103 ft | 493 kts | 122° |
| 2026-04-29 17:32 | 41.33908 | 45.15785 | 35103 ft | 498 kts | 114° |
| 2026-04-29 17:32 | 41.31648 | 45.24511 | 35099 ft | 499 kts | 112° |
| 2026-04-29 17:33 | 41.29442 | 45.33263 | 35101 ft | 499 kts | 112° |
| 2026-04-29 17:33 | 41.27212 | 45.41991 | 35095 ft | 498 kts | 112° |
| 2026-04-29 17:34 | 41.24959 | 45.50703 | 35083 ft | 497 kts | 112° |
| 2026-04-29 17:34 | 41.22716 | 45.59322 | 35096 ft | 496 kts | 112° |
| 2026-04-29 17:35 | 41.19323 | 45.72308 | 35096 ft | 496 kts | 112° |
| 2026-04-29 17:36 | 41.17041 | 45.80951 | 35099 ft | 496 kts | 112° |
| 2026-04-29 17:36 | 41.14755 | 45.89581 | 35105 ft | 495 kts | 112° |
| 2026-04-29 17:37 | 41.12467 | 45.98200 | 35105 ft | 495 kts | 112° |
| 2026-04-29 17:37 | 41.10177 | 46.06799 | 35106 ft | 495 kts | 112° |
| 2026-04-29 17:38 | 41.07880 | 46.15396 | 35102 ft | 495 kts | 112° |
| 2026-04-29 17:38 | 41.05576 | 46.23987 | 35116 ft | 494 kts | 112° |
| 2026-04-29 17:39 | 41.03273 | 46.32569 | 35112 ft | 494 kts | 112° |
| 2026-04-29 17:39 | 41.00981 | 46.41153 | 35113 ft | 494 kts | 112° |
| 2026-04-29 17:40 | 40.98701 | 46.49673 | 35109 ft | 493 kts | 112° |
| 2026-04-29 17:40 | 40.96406 | 46.58216 | 35119 ft | 492 kts | 112° |
| 2026-04-29 17:41 | 40.94103 | 46.66751 | 35113 ft | 492 kts | 112° |
| 2026-04-29 17:41 | 40.91792 | 46.75287 | 35104 ft | 493 kts | 112° |
| 2026-04-29 17:42 | 40.89481 | 46.83800 | 35110 ft | 492 kts | 112° |
| 2026-04-29 17:42 | 40.87158 | 46.92305 | 35110 ft | 492 kts | 112° |
| 2026-04-29 17:43 | 40.84820 | 47.00802 | 35105 ft | 492 kts | 112° |
| 2026-04-29 17:43 | 40.82479 | 47.09291 | 35104 ft | 491 kts | 112° |
| 2026-04-29 17:44 | 40.80150 | 47.17713 | 35104 ft | 491 kts | 112° |
| 2026-04-29 17:44 | 40.77792 | 47.26167 | 35101 ft | 491 kts | 113° |
| 2026-04-29 17:45 | 40.75420 | 47.34618 | 35092 ft | 491 kts | 113° |
| 2026-04-29 17:45 | 40.73048 | 47.43067 | 35101 ft | 491 kts | 113° |
| 2026-04-29 17:46 | 40.70675 | 47.51515 | 35101 ft | 491 kts | 113° |
| 2026-04-29 17:46 | 40.68292 | 47.59966 | 35104 ft | 491 kts | 113° |
| 2026-04-29 17:47 | 40.65904 | 47.68410 | 35108 ft | 491 kts | 113° |
| 2026-04-29 17:47 | 40.63510 | 47.76846 | 35110 ft | 491 kts | 113° |
| 2026-04-29 17:48 | 40.61126 | 47.85224 | 35113 ft | 491 kts | 113° |
| 2026-04-29 17:48 | 40.58987 | 47.93752 | 35113 ft | 495 kts | 104° |
| 2026-04-29 17:49 | 40.58520 | 48.02831 | 35113 ft | 499 kts | 91° |
| 2026-04-29 17:49 | 40.58597 | 48.07396 | 35251 ft | 500 kts | 90° |
| 2026-04-29 17:49 | 40.58729 | 48.11964 | 35470 ft | 499 kts | 90° |
| 2026-04-29 17:49 | 40.58879 | 48.16525 | 35691 ft | 499 kts | 90° |
| 2026-04-29 17:50 | 40.59032 | 48.21103 | 35859 ft | 500 kts | 90° |
| 2026-04-29 17:50 | 40.59173 | 48.25673 | 36036 ft | 500 kts | 90° |
| 2026-04-29 17:50 | 40.59303 | 48.30244 | 36200 ft | 501 kts | 90° |
| 2026-04-29 17:50 | 40.59424 | 48.34840 | 36374 ft | 501 kts | 90° |
| 2026-04-29 17:51 | 40.59538 | 48.39368 | 36551 ft | 502 kts | 90° |
| 2026-04-29 17:51 | 40.59651 | 48.43962 | 36722 ft | 502 kts | 90° |
| 2026-04-29 17:51 | 40.59762 | 48.48562 | 36864 ft | 503 kts | 91° |
| 2026-04-29 17:51 | 40.59871 | 48.53160 | 37003 ft | 504 kts | 91° |
| 2026-04-29 17:52 | 40.59978 | 48.57772 | 37107 ft | 505 kts | 91° |
| 2026-04-29 17:52 | 40.60191 | 48.67038 | 37119 ft | 505 kts | 91° |
| 2026-04-29 17:53 | 40.60397 | 48.76254 | 37118 ft | 503 kts | 91° |
| 2026-04-29 17:53 | 40.60593 | 48.85461 | 37117 ft | 503 kts | 91° |
| 2026-04-29 17:54 | 40.60782 | 48.94674 | 37118 ft | 503 kts | 91° |
| 2026-04-29 17:54 | 40.60965 | 49.03892 | 37116 ft | 504 kts | 91° |
| 2026-04-29 17:55 | 40.61139 | 49.13118 | 37117 ft | 504 kts | 91° |
| 2026-04-29 17:55 | 40.61322 | 49.22290 | 37118 ft | 505 kts | 90° |
| 2026-04-29 17:56 | 40.61824 | 49.31523 | 37121 ft | 506 kts | 88° |
| 2026-04-29 17:56 | 40.62442 | 49.40745 | 37124 ft | 506 kts | 88° |
| 2026-04-29 17:57 | 40.63013 | 49.49977 | 37123 ft | 505 kts | 88° |
| 2026-04-29 17:57 | 40.63537 | 49.59212 | 37120 ft | 506 kts | 89° |
| 2026-04-29 17:58 | 40.64042 | 49.68459 | 37116 ft | 507 kts | 89° |
| 2026-04-29 17:58 | 40.64542 | 49.77721 | 37120 ft | 506 kts | 89° |
| 2026-04-29 17:59 | 40.65036 | 49.86980 | 37124 ft | 506 kts | 89° |
| 2026-04-29 17:59 | 40.65522 | 49.96224 | 37124 ft | 506 kts | 89° |
| 2026-04-29 18:00 | 40.65998 | 50.05414 | 37124 ft | 506 kts | 89° |
| 2026-04-29 18:00 | 40.66470 | 50.14670 | 37109 ft | 506 kts | 89° |
| 2026-04-29 18:01 | 40.66936 | 50.23957 | 37117 ft | 508 kts | 89° |
| 2026-04-29 18:01 | 40.67318 | 50.31676 | 37114 ft | 507 kts | 89° |
| 2026-04-29 18:02 | 40.67769 | 50.40945 | 37106 ft | 507 kts | 89° |
| 2026-04-29 18:02 | 40.68214 | 50.50211 | 37105 ft | 507 kts | 89° |
| 2026-04-29 18:03 | 40.68649 | 50.59475 | 37105 ft | 507 kts | 89° |
| 2026-04-29 18:03 | 40.69076 | 50.68749 | 37105 ft | 507 kts | 89° |
| 2026-04-29 18:04 | 40.69496 | 50.78023 | 37103 ft | 507 kts | 90° |
| 2026-04-29 18:04 | 40.69910 | 50.87302 | 37110 ft | 508 kts | 90° |
| 2026-04-29 18:05 | 40.70316 | 50.96589 | 37111 ft | 507 kts | 90° |
| 2026-04-29 18:05 | 40.70712 | 51.05799 | 37102 ft | 507 kts | 90° |
| 2026-04-29 18:06 | 40.71103 | 51.15073 | 37108 ft | 507 kts | 90° |
| 2026-04-29 18:06 | 40.71486 | 51.24346 | 37099 ft | 507 kts | 90° |
| 2026-04-29 18:07 | 40.71863 | 51.33628 | 37098 ft | 507 kts | 90° |
| 2026-04-29 18:07 | 40.72232 | 51.42907 | 37097 ft | 507 kts | 90° |
| 2026-04-29 18:08 | 40.72949 | 51.52172 | 37095 ft | 510 kts | 82° |
| 2026-04-29 18:08 | 40.74362 | 51.61354 | 37093 ft | 511 kts | 80° |
| 2026-04-29 18:09 | 40.75873 | 51.70459 | 37082 ft | 511 kts | 80° |
| 2026-04-29 18:09 | 40.77395 | 51.79615 | 37082 ft | 511 kts | 80° |
| 2026-04-29 18:10 | 40.78896 | 51.88774 | 37089 ft | 511 kts | 81° |
| 2026-04-29 18:10 | 40.80381 | 51.97937 | 37078 ft | 511 kts | 81° |
| 2026-04-29 18:11 | 40.81860 | 52.07119 | 37071 ft | 511 kts | 81° |
| 2026-04-29 18:11 | 40.83330 | 52.16291 | 37075 ft | 511 kts | 81° |
| 2026-04-29 18:12 | 40.84797 | 52.25493 | 37069 ft | 512 kts | 81° |
| 2026-04-29 18:12 | 40.86258 | 52.34706 | 37061 ft | 512 kts | 81° |
| 2026-04-29 18:13 | 40.87710 | 52.43905 | 37065 ft | 511 kts | 81° |
| 2026-04-29 18:13 | 40.89143 | 52.53045 | 37062 ft | 511 kts | 81° |
| 2026-04-29 18:14 | 40.90335 | 52.62272 | 37060 ft | 507 kts | 88° |
| 2026-04-29 18:14 | 40.90850 | 52.71571 | 37049 ft | 506 kts | 90° |
| 2026-04-29 18:15 | 40.91243 | 52.80863 | 37057 ft | 506 kts | 90° |
| 2026-04-29 18:15 | 40.91615 | 52.90150 | 37044 ft | 505 kts | 90° |
| 2026-04-29 18:16 | 40.91991 | 52.99439 | 37052 ft | 506 kts | 90° |
| 2026-04-29 18:16 | 40.92367 | 53.08722 | 37046 ft | 506 kts | 90° |
| 2026-04-29 18:17 | 40.92740 | 53.17995 | 37047 ft | 505 kts | 91° |
| 2026-04-29 18:17 | 40.93088 | 53.27209 | 37055 ft | 504 kts | 91° |
| 2026-04-29 18:18 | 40.93426 | 53.36473 | 37047 ft | 504 kts | 91° |
| 2026-04-29 18:18 | 40.93760 | 53.45733 | 37040 ft | 504 kts | 91° |
| 2026-04-29 18:19 | 40.94088 | 53.54990 | 37037 ft | 504 kts | 91° |
| 2026-04-29 18:19 | 40.94410 | 53.64249 | 37039 ft | 503 kts | 91° |
| 2026-04-29 18:20 | 40.94723 | 53.73498 | 37047 ft | 503 kts | 91° |
| 2026-04-29 18:20 | 40.95029 | 53.82752 | 37037 ft | 503 kts | 91° |
| 2026-04-29 18:21 | 40.95328 | 53.92005 | 37043 ft | 503 kts | 91° |
| 2026-04-29 18:21 | 40.95620 | 54.01255 | 37040 ft | 503 kts | 91° |
| 2026-04-29 18:22 | 40.95903 | 54.10500 | 37029 ft | 503 kts | 91° |
| 2026-04-29 18:22 | 40.96179 | 54.19745 | 37037 ft | 503 kts | 91° |
| 2026-04-29 18:23 | 40.96447 | 54.28941 | 37041 ft | 503 kts | 91° |
| 2026-04-29 18:23 | 40.96709 | 54.38198 | 37039 ft | 503 kts | 92° |
| 2026-04-29 18:24 | 40.96963 | 54.47450 | 37040 ft | 503 kts | 92° |
| 2026-04-29 18:24 | 40.97210 | 54.56709 | 37039 ft | 503 kts | 92° |
| 2026-04-29 18:25 | 40.97450 | 54.65963 | 37034 ft | 503 kts | 92° |
| 2026-04-29 18:25 | 40.97682 | 54.75202 | 37025 ft | 501 kts | 92° |
| 2026-04-29 18:26 | 40.97905 | 54.84423 | 37037 ft | 501 kts | 92° |
| 2026-04-29 18:26 | 40.98121 | 54.93647 | 37036 ft | 501 kts | 92° |
| 2026-04-29 18:27 | 40.98321 | 55.02866 | 37027 ft | 501 kts | 92° |
| 2026-04-29 18:27 | 40.98510 | 55.12039 | 37034 ft | 500 kts | 92° |
| 2026-04-29 18:28 | 40.98694 | 55.21239 | 37035 ft | 500 kts | 92° |
| 2026-04-29 18:28 | 40.98872 | 55.30450 | 37031 ft | 500 kts | 92° |
| 2026-04-29 18:29 | 40.99043 | 55.39655 | 37027 ft | 501 kts | 92° |
| 2026-04-29 18:29 | 40.99206 | 55.48865 | 37026 ft | 500 kts | 92° |
| 2026-04-29 18:30 | 40.99362 | 55.58067 | 37019 ft | 500 kts | 92° |
| 2026-04-29 18:30 | 40.99511 | 55.67282 | 37021 ft | 500 kts | 92° |
| 2026-04-29 18:31 | 40.99652 | 55.76479 | 37019 ft | 500 kts | 92° |
| 2026-04-29 18:31 | 40.99799 | 55.85684 | 37017 ft | 500 kts | 92° |
| 2026-04-29 18:32 | 40.99947 | 55.94877 | 37009 ft | 499 kts | 92° |
| 2026-04-29 18:32 | 41.00154 | 56.08662 | 37003 ft | 499 kts | 92° |
| 2026-04-29 18:33 | 41.00281 | 56.17859 | 37009 ft | 500 kts | 92° |
| 2026-04-29 18:33 | 41.00401 | 56.26991 | 37005 ft | 499 kts | 93° |
| 2026-04-29 18:34 | 41.00496 | 56.34689 | 37004 ft | 499 kts | 93° |
| 2026-04-29 18:34 | 41.00619 | 56.45368 | 37001 ft | 499 kts | 93° |
| 2026-04-29 18:35 | 41.01165 | 56.54557 | 36999 ft | 502 kts | 85° |
| 2026-04-29 18:35 | 41.02201 | 56.63724 | 36983 ft | 503 kts | 84° |
| 2026-04-29 18:36 | 41.03307 | 56.72858 | 37000 ft | 502 kts | 84° |
| 2026-04-29 18:36 | 41.04400 | 56.81947 | 36991 ft | 502 kts | 84° |
| 2026-04-29 18:37 | 41.05486 | 56.91145 | 36986 ft | 502 kts | 84° |
| 2026-04-29 18:37 | 41.06546 | 57.00223 | 36987 ft | 501 kts | 84° |
| 2026-04-29 18:38 | 41.07602 | 57.09343 | 36970 ft | 500 kts | 84° |
| 2026-04-29 18:38 | 41.08649 | 57.18452 | 36978 ft | 500 kts | 84° |
| 2026-04-29 18:39 | 41.09688 | 57.27553 | 36962 ft | 500 kts | 85° |
| 2026-04-29 18:39 | 41.10721 | 57.36661 | 36970 ft | 498 kts | 85° |
| 2026-04-29 18:40 | 41.11744 | 57.45750 | 36972 ft | 498 kts | 85° |
| 2026-04-29 18:40 | 41.12759 | 57.54835 | 36966 ft | 498 kts | 85° |
| 2026-04-29 18:41 | 41.14771 | 57.73049 | 36956 ft | 499 kts | 85° |
| 2026-04-29 18:42 | 41.15768 | 57.82168 | 36954 ft | 500 kts | 85° |
| 2026-04-29 18:42 | 41.16758 | 57.91293 | 36953 ft | 499 kts | 85° |
| 2026-04-29 18:43 | 41.17735 | 58.00367 | 36955 ft | 500 kts | 85° |
| 2026-04-29 18:43 | 41.18710 | 58.09499 | 36955 ft | 500 kts | 85° |
| 2026-04-29 18:44 | 41.19684 | 58.18635 | 36948 ft | 499 kts | 85° |
| 2026-04-29 18:44 | 41.20645 | 58.27785 | 36948 ft | 499 kts | 85° |
| 2026-04-29 18:45 | 41.21598 | 58.36932 | 36944 ft | 500 kts | 85° |
| 2026-04-29 18:45 | 41.22542 | 58.46045 | 36939 ft | 501 kts | 85° |
| 2026-04-29 18:46 | 41.23484 | 58.55208 | 36938 ft | 501 kts | 85° |
| 2026-04-29 18:46 | 41.24420 | 58.64381 | 36934 ft | 502 kts | 85° |
| 2026-04-29 18:47 | 41.25351 | 58.73582 | 36931 ft | 502 kts | 85° |
| 2026-04-29 18:47 | 41.26273 | 58.82773 | 36929 ft | 502 kts | 85° |
| 2026-04-29 18:48 | 41.27035 | 58.90421 | 36925 ft | 502 kts | 85° |
| 2026-04-29 18:48 | 41.27944 | 58.99619 | 36923 ft | 502 kts | 85° |
| 2026-04-29 18:49 | 41.28846 | 59.08824 | 36912 ft | 502 kts | 85° |
| 2026-04-29 18:49 | 41.29741 | 59.18026 | 36911 ft | 502 kts | 85° |
| 2026-04-29 18:50 | 41.30629 | 59.27242 | 36907 ft | 501 kts | 85° |
| 2026-04-29 18:50 | 41.31508 | 59.36445 | 36896 ft | 501 kts | 85° |
| 2026-04-29 18:51 | 41.32380 | 59.45652 | 36897 ft | 501 kts | 85° |
| 2026-04-29 18:51 | 41.33239 | 59.54793 | 36887 ft | 501 kts | 85° |
| 2026-04-29 18:52 | 41.34113 | 59.64008 | 36891 ft | 502 kts | 83° |
| 2026-04-29 18:52 | 41.35878 | 59.73035 | 36902 ft | 505 kts | 74° |
| 2026-04-29 18:53 | 41.38009 | 59.81931 | 36896 ft | 504 kts | 73° |
| 2026-04-29 18:53 | 41.40196 | 59.90815 | 36878 ft | 504 kts | 73° |
| 2026-04-29 18:54 | 41.42368 | 59.99709 | 36886 ft | 505 kts | 73° |
| 2026-04-29 18:54 | 41.44516 | 60.08604 | 36899 ft | 504 kts | 73° |
| 2026-04-29 18:55 | 41.46653 | 60.17506 | 36896 ft | 503 kts | 73° |
| 2026-04-29 18:55 | 41.48775 | 60.26402 | 36899 ft | 503 kts | 73° |
| 2026-04-29 18:56 | 41.50857 | 60.35272 | 36909 ft | 503 kts | 73° |
| 2026-04-29 18:56 | 41.52943 | 60.44202 | 36898 ft | 504 kts | 73° |
| 2026-04-29 18:57 | 41.55025 | 60.53131 | 36915 ft | 504 kts | 73° |
| 2026-04-29 18:57 | 41.57104 | 60.62069 | 36910 ft | 504 kts | 73° |
| 2026-04-29 18:58 | 41.59232 | 60.70984 | 36911 ft | 504 kts | 71° |
| 2026-04-29 18:58 | 41.61588 | 60.79826 | 36909 ft | 505 kts | 70° |
| 2026-04-29 18:59 | 41.63966 | 60.88662 | 36907 ft | 505 kts | 71° |
| 2026-04-29 18:59 | 41.66301 | 60.97507 | 36903 ft | 505 kts | 71° |
| 2026-04-29 19:00 | 41.68613 | 61.06382 | 36909 ft | 505 kts | 71° |
| 2026-04-29 19:00 | 41.70897 | 61.15202 | 36909 ft | 505 kts | 71° |
| 2026-04-29 19:01 | 41.73191 | 61.24090 | 36907 ft | 505 kts | 71° |
| 2026-04-29 19:01 | 41.75477 | 61.32976 | 36905 ft | 505 kts | 71° |
| 2026-04-29 19:02 | 41.77373 | 61.40370 | 36905 ft | 505 kts | 71° |
| 2026-04-29 19:02 | 41.80031 | 61.50771 | 36910 ft | 505 kts | 71° |
| 2026-04-29 19:03 | 41.82301 | 61.59689 | 36911 ft | 505 kts | 71° |
| 2026-04-29 19:03 | 41.84562 | 61.68611 | 36894 ft | 505 kts | 71° |
| 2026-04-29 19:04 | 41.86815 | 61.77528 | 36896 ft | 505 kts | 71° |
| 2026-04-29 19:04 | 41.89044 | 61.86409 | 36909 ft | 505 kts | 71° |
| 2026-04-29 19:05 | 41.91277 | 61.95352 | 36909 ft | 506 kts | 71° |
| 2026-04-29 19:05 | 41.93505 | 62.04311 | 36909 ft | 506 kts | 71° |
| 2026-04-29 19:06 | 41.95733 | 62.13289 | 36902 ft | 506 kts | 71° |
| 2026-04-29 19:07 | 41.99057 | 62.26722 | 36908 ft | 504 kts | 71° |
| 2026-04-29 19:07 | 42.01263 | 62.35678 | 36904 ft | 504 kts | 71° |
| 2026-04-29 19:08 | 42.03459 | 62.44630 | 36906 ft | 504 kts | 71° |
| 2026-04-29 19:08 | 42.05633 | 62.53527 | 36907 ft | 503 kts | 71° |
| 2026-04-29 19:09 | 42.07807 | 62.62460 | 36909 ft | 502 kts | 71° |
| 2026-04-29 19:09 | 42.09974 | 62.71399 | 36907 ft | 502 kts | 71° |
| 2026-04-29 19:10 | 42.12132 | 62.80341 | 36898 ft | 501 kts | 71° |
| 2026-04-29 19:10 | 42.14276 | 62.89264 | 36903 ft | 500 kts | 71° |
| 2026-04-29 19:11 | 42.16413 | 62.98174 | 36907 ft | 500 kts | 71° |
| 2026-04-29 19:11 | 42.18544 | 63.07096 | 36910 ft | 500 kts | 71° |
| 2026-04-29 19:12 | 42.20669 | 63.16000 | 36909 ft | 497 kts | 71° |
| 2026-04-29 19:12 | 42.22776 | 63.24867 | 36918 ft | 496 kts | 71° |
| 2026-04-29 19:13 | 42.24873 | 63.33728 | 36915 ft | 496 kts | 71° |
| 2026-04-29 19:13 | 42.26947 | 63.42535 | 36916 ft | 495 kts | 71° |
| 2026-04-29 19:14 | 42.29023 | 63.51382 | 36921 ft | 493 kts | 72° |
| 2026-04-29 19:14 | 42.31086 | 63.60209 | 36920 ft | 493 kts | 72° |
| 2026-04-29 19:15 | 42.33145 | 63.69048 | 36917 ft | 493 kts | 72° |
| 2026-04-29 19:15 | 42.35191 | 63.77873 | 36928 ft | 491 kts | 72° |
| 2026-04-29 19:16 | 42.37228 | 63.86691 | 36924 ft | 491 kts | 72° |
| 2026-04-29 19:16 | 42.39258 | 63.95512 | 36924 ft | 491 kts | 72° |
| 2026-04-29 19:17 | 42.41263 | 64.04275 | 36923 ft | 490 kts | 72° |
| 2026-04-29 19:17 | 42.43247 | 64.13098 | 36922 ft | 489 kts | 72° |
| 2026-04-29 19:18 | 42.45213 | 64.21905 | 36924 ft | 489 kts | 72° |
| 2026-04-29 19:18 | 42.47192 | 64.30720 | 36924 ft | 489 kts | 72° |
| 2026-04-29 19:19 | 42.49173 | 64.39529 | 36923 ft | 489 kts | 72° |
| 2026-04-29 19:19 | 42.51149 | 64.48348 | 36920 ft | 489 kts | 72° |
| 2026-04-29 19:20 | 42.53118 | 64.57179 | 36922 ft | 489 kts | 72° |
| 2026-04-29 19:20 | 42.55064 | 64.65947 | 36923 ft | 489 kts | 72° |
| 2026-04-29 19:21 | 42.57015 | 64.74775 | 36923 ft | 488 kts | 72° |
| 2026-04-29 19:21 | 42.58955 | 64.83588 | 36923 ft | 487 kts | 73° |
| 2026-04-29 19:22 | 42.60889 | 64.92406 | 36920 ft | 488 kts | 73° |
| 2026-04-29 19:22 | 42.62817 | 65.01235 | 36917 ft | 487 kts | 73° |
| 2026-04-29 19:23 | 42.64737 | 65.10067 | 36920 ft | 487 kts | 73° |
| 2026-04-29 19:23 | 42.66648 | 65.18893 | 36914 ft | 487 kts | 73° |
| 2026-04-29 19:24 | 42.68555 | 65.27734 | 36912 ft | 487 kts | 73° |
| 2026-04-29 19:24 | 42.70454 | 65.36577 | 36913 ft | 488 kts | 73° |
| 2026-04-29 19:25 | 42.72350 | 65.45442 | 36910 ft | 488 kts | 73° |
| 2026-04-29 19:25 | 42.74225 | 65.54248 | 36909 ft | 488 kts | 73° |
| 2026-04-29 19:26 | 42.76106 | 65.63121 | 36906 ft | 489 kts | 73° |
| 2026-04-29 19:26 | 42.77991 | 65.72047 | 36906 ft | 491 kts | 73° |
| 2026-04-29 19:27 | 42.79876 | 65.80993 | 36904 ft | 491 kts | 73° |
| 2026-04-29 19:27 | 42.81747 | 65.89933 | 36903 ft | 491 kts | 73° |
| 2026-04-29 19:28 | 42.83596 | 65.98816 | 36906 ft | 491 kts | 74° |
| 2026-04-29 19:28 | 42.85457 | 66.07788 | 36905 ft | 491 kts | 74° |
| 2026-04-29 19:29 | 42.87307 | 66.16767 | 36899 ft | 492 kts | 74° |
| 2026-04-29 19:29 | 42.89134 | 66.25752 | 36881 ft | 491 kts | 74° |
| 2026-04-29 19:30 | 42.90955 | 66.34750 | 36890 ft | 492 kts | 75° |
| 2026-04-29 19:30 | 42.92760 | 66.43698 | 36893 ft | 492 kts | 75° |
| 2026-04-29 19:31 | 42.94573 | 66.52714 | 36881 ft | 492 kts | 75° |
| 2026-04-29 19:31 | 42.96379 | 66.61725 | 36890 ft | 492 kts | 75° |
| 2026-04-29 19:32 | 42.98205 | 66.70735 | 36890 ft | 493 kts | 75° |
| 2026-04-29 19:32 | 43.00036 | 66.79765 | 36889 ft | 493 kts | 75° |
| 2026-04-29 19:33 | 43.01837 | 66.88795 | 36893 ft | 493 kts | 75° |
| 2026-04-29 19:33 | 43.03603 | 66.97782 | 36892 ft | 493 kts | 75° |
| 2026-04-29 19:34 | 43.05379 | 67.06848 | 36894 ft | 494 kts | 75° |
| 2026-04-29 19:34 | 43.06863 | 67.14440 | 36891 ft | 494 kts | 75° |
| 2026-04-29 19:35 | 43.08920 | 67.24998 | 36890 ft | 494 kts | 75° |
| 2026-04-29 19:35 | 43.10386 | 67.32559 | 36893 ft | 494 kts | 76° |
| 2026-04-29 19:36 | 43.12143 | 67.41662 | 36891 ft | 494 kts | 76° |
| 2026-04-29 19:36 | 43.13895 | 67.50758 | 36889 ft | 494 kts | 76° |
| 2026-04-29 19:37 | 43.15640 | 67.59872 | 36890 ft | 494 kts | 76° |
| 2026-04-29 19:37 | 43.17376 | 67.68988 | 36894 ft | 494 kts | 76° |
| 2026-04-29 19:38 | 43.19106 | 67.78112 | 36890 ft | 494 kts | 76° |
| 2026-04-29 19:38 | 43.20831 | 67.87229 | 36891 ft | 494 kts | 76° |
| 2026-04-29 19:39 | 43.22543 | 67.96355 | 36892 ft | 494 kts | 76° |
| 2026-04-29 19:39 | 43.24248 | 68.05497 | 36896 ft | 494 kts | 76° |
| 2026-04-29 19:40 | 43.25945 | 68.14627 | 36893 ft | 494 kts | 76° |
| 2026-04-29 19:40 | 43.27626 | 68.23709 | 36897 ft | 494 kts | 76° |
| 2026-04-29 19:41 | 43.29309 | 68.32852 | 36895 ft | 494 kts | 76° |
| 2026-04-29 19:41 | 43.30888 | 68.42045 | 36899 ft | 494 kts | 80° |
| 2026-04-29 19:42 | 43.31954 | 68.51349 | 36907 ft | 494 kts | 83° |
| 2026-04-29 19:42 | 43.32933 | 68.60697 | 36911 ft | 494 kts | 83° |
| 2026-04-29 19:43 | 43.33725 | 68.70067 | 36910 ft | 494 kts | 85° |
| 2026-04-29 19:43 | 43.34446 | 68.79398 | 36911 ft | 494 kts | 85° |
| 2026-04-29 19:44 | 43.35208 | 68.88784 | 36911 ft | 494 kts | 84° |
| 2026-04-29 19:44 | 43.35992 | 68.98166 | 36915 ft | 494 kts | 84° |
| 2026-04-29 19:45 | 43.36775 | 69.07542 | 36920 ft | 494 kts | 84° |
| 2026-04-29 19:45 | 43.37550 | 69.16918 | 36920 ft | 493 kts | 84° |
| 2026-04-29 19:46 | 43.38344 | 69.26295 | 36922 ft | 493 kts | 84° |
| 2026-04-29 19:46 | 43.39164 | 69.35659 | 36921 ft | 493 kts | 84° |
| 2026-04-29 19:47 | 43.39974 | 69.45022 | 36936 ft | 493 kts | 84° |
| 2026-04-29 19:47 | 43.40764 | 69.54313 | 36935 ft | 492 kts | 84° |
| 2026-04-29 19:48 | 43.41549 | 69.63667 | 36937 ft | 492 kts | 84° |
| 2026-04-29 19:48 | 43.42326 | 69.73026 | 36941 ft | 493 kts | 84° |
| 2026-04-29 19:49 | 43.43107 | 69.82399 | 36944 ft | 493 kts | 84° |
| 2026-04-29 19:49 | 43.43914 | 69.91772 | 36942 ft | 493 kts | 84° |
| 2026-04-29 19:50 | 43.44716 | 70.01151 | 36940 ft | 493 kts | 84° |
| 2026-04-29 19:50 | 43.45498 | 70.10464 | 36936 ft | 493 kts | 84° |
| 2026-04-29 19:51 | 43.46275 | 70.19839 | 36940 ft | 493 kts | 84° |
| 2026-04-29 19:51 | 43.47044 | 70.29232 | 36930 ft | 493 kts | 84° |
| 2026-04-29 19:52 | 43.47807 | 70.38622 | 36929 ft | 493 kts | 84° |
| 2026-04-29 19:52 | 43.48561 | 70.48014 | 36924 ft | 493 kts | 84° |
| 2026-04-29 19:53 | 43.49308 | 70.57404 | 36924 ft | 494 kts | 84° |
| 2026-04-29 19:53 | 43.50047 | 70.66803 | 36915 ft | 494 kts | 84° |
| 2026-04-29 19:54 | 43.51142 | 70.80910 | 36911 ft | 493 kts | 84° |
| 2026-04-29 19:54 | 43.51861 | 70.90263 | 36920 ft | 494 kts | 84° |
| 2026-04-29 19:55 | 43.52564 | 70.99679 | 36917 ft | 494 kts | 84° |
| 2026-04-29 19:55 | 43.53254 | 71.09098 | 36916 ft | 494 kts | 84° |
| 2026-04-29 19:56 | 43.53939 | 71.18526 | 36917 ft | 494 kts | 84° |
| 2026-04-29 19:56 | 43.54618 | 71.27949 | 36915 ft | 494 kts | 84° |
| 2026-04-29 19:57 | 43.55177 | 71.35792 | 36913 ft | 494 kts | 84° |
| 2026-04-29 19:57 | 43.55951 | 71.46757 | 36911 ft | 494 kts | 84° |
| 2026-04-29 19:58 | 43.56607 | 71.56185 | 36916 ft | 494 kts | 84° |
| 2026-04-29 19:58 | 43.57256 | 71.65625 | 36916 ft | 495 kts | 84° |
| 2026-04-29 19:59 | 43.57898 | 71.75069 | 36916 ft | 495 kts | 84° |
| 2026-04-29 19:59 | 43.58532 | 71.84520 | 36912 ft | 495 kts | 84° |
| 2026-04-29 20:00 | 43.59157 | 71.93969 | 36918 ft | 495 kts | 84° |
| 2026-04-29 20:00 | 43.59777 | 72.03445 | 36919 ft | 496 kts | 84° |
| 2026-04-29 20:01 | 43.60386 | 72.12868 | 36913 ft | 496 kts | 84° |
| 2026-04-29 20:01 | 43.60990 | 72.22349 | 36911 ft | 496 kts | 84° |
| 2026-04-29 20:02 | 43.61587 | 72.31834 | 36913 ft | 496 kts | 84° |
| 2026-04-29 20:02 | 43.62080 | 72.39769 | 36920 ft | 496 kts | 84° |
| 2026-04-29 20:03 | 43.62755 | 72.50791 | 36919 ft | 496 kts | 84° |
| 2026-04-29 20:03 | 43.63329 | 72.60293 | 36916 ft | 496 kts | 84° |
| 2026-04-29 20:04 | 43.63893 | 72.69778 | 36917 ft | 495 kts | 84° |
| 2026-04-29 20:04 | 43.64450 | 72.79258 | 36917 ft | 495 kts | 84° |
| 2026-04-29 20:05 | 43.64999 | 72.88744 | 36919 ft | 495 kts | 84° |
| 2026-04-29 20:05 | 43.65536 | 72.98164 | 36922 ft | 495 kts | 84° |
| 2026-04-29 20:06 | 43.66069 | 73.07641 | 36920 ft | 495 kts | 84° |
| 2026-04-29 20:06 | 43.66593 | 73.17118 | 36915 ft | 494 kts | 84° |
| 2026-04-29 20:07 | 43.67110 | 73.26596 | 36915 ft | 494 kts | 84° |
| 2026-04-29 20:07 | 43.67618 | 73.36066 | 36920 ft | 494 kts | 84° |
| 2026-04-29 20:08 | 43.68036 | 73.43952 | 36916 ft | 494 kts | 84° |
| 2026-04-29 20:08 | 43.68610 | 73.54965 | 36915 ft | 494 kts | 84° |
| 2026-04-29 20:09 | 43.69095 | 73.64446 | 36914 ft | 494 kts | 85° |
| 2026-04-29 20:09 | 43.69532 | 73.73924 | 36916 ft | 495 kts | 88° |
| 2026-04-29 20:10 | 43.69397 | 73.83441 | 36922 ft | 495 kts | 91° |
| 2026-04-29 20:10 | 43.69135 | 73.92953 | 36922 ft | 495 kts | 91° |
| 2026-04-29 20:11 | 43.68844 | 74.02479 | 36928 ft | 496 kts | 91° |
| 2026-04-29 20:11 | 43.68553 | 74.11982 | 36929 ft | 495 kts | 91° |
| 2026-04-29 20:12 | 43.68261 | 74.21486 | 36932 ft | 495 kts | 91° |
| 2026-04-29 20:12 | 43.67975 | 74.30986 | 36939 ft | 495 kts | 91° |
| 2026-04-29 20:13 | 43.67730 | 74.38880 | 36859 ft | 495 kts | 91° |
| 2026-04-29 20:13 | 43.67532 | 74.45117 | 36678 ft | 484 kts | 91° |
| 2026-04-29 20:13 | 43.67384 | 74.49718 | 36440 ft | 477 kts | 91° |
| 2026-04-29 20:14 | 43.67235 | 74.54329 | 35680 ft | 483 kts | 91° |
| 2026-04-29 20:14 | 43.67083 | 74.58984 | 34932 ft | 488 kts | 91° |
| 2026-04-29 20:14 | 43.66926 | 74.63692 | 34241 ft | 492 kts | 91° |
| 2026-04-29 20:14 | 43.66767 | 74.68415 | 33512 ft | 493 kts | 91° |
| 2026-04-29 20:15 | 43.66605 | 74.73164 | 32716 ft | 495 kts | 91° |
| 2026-04-29 20:15 | 43.66441 | 74.77920 | 31903 ft | 497 kts | 91° |
| 2026-04-29 20:15 | 43.66274 | 74.82701 | 31112 ft | 499 kts | 91° |
| 2026-04-29 20:15 | 43.66104 | 74.87500 | 30323 ft | 500 kts | 91° |
| 2026-04-29 20:16 | 43.65933 | 74.92301 | 29448 ft | 501 kts | 91° |
| 2026-04-29 20:16 | 43.65759 | 74.97115 | 28623 ft | 500 kts | 91° |
| 2026-04-29 20:16 | 43.65583 | 75.01891 | 27983 ft | 496 kts | 92° |
| 2026-04-29 20:16 | 43.65408 | 75.06621 | 27387 ft | 491 kts | 92° |
| 2026-04-29 20:17 | 43.65232 | 75.11316 | 26778 ft | 486 kts | 92° |
| 2026-04-29 20:17 | 43.65056 | 75.15953 | 26179 ft | 482 kts | 92° |
| 2026-04-29 20:17 | 43.64880 | 75.20563 | 25584 ft | 478 kts | 92° |
| 2026-04-29 20:17 | 43.64706 | 75.25066 | 25001 ft | 474 kts | 92° |
| 2026-04-29 20:18 | 43.64529 | 75.29596 | 24417 ft | 470 kts | 92° |
| 2026-04-29 20:18 | 43.64352 | 75.34083 | 23823 ft | 467 kts | 92° |
| 2026-04-29 20:18 | 43.64174 | 75.38554 | 23170 ft | 464 kts | 92° |
| 2026-04-29 20:18 | 43.63996 | 75.42970 | 22544 ft | 459 kts | 92° |
| 2026-04-29 20:19 | 43.63818 | 75.47348 | 21961 ft | 454 kts | 92° |
| 2026-04-29 20:19 | 43.63641 | 75.51682 | 21366 ft | 450 kts | 92° |
| 2026-04-29 20:19 | 43.63466 | 75.55973 | 20811 ft | 445 kts | 93° |
| 2026-04-29 20:19 | 43.63289 | 75.60208 | 20286 ft | 439 kts | 93° |
| 2026-04-29 20:20 | 43.63111 | 75.64370 | 20022 ft | 428 kts | 93° |
| 2026-04-29 20:20 | 43.63098 | 75.68444 | 19978 ft | 424 kts | 85° |
| 2026-04-29 20:20 | 43.63632 | 75.72385 | 19969 ft | 421 kts | 72° |
| 2026-04-29 20:20 | 43.64874 | 75.76048 | 19964 ft | 423 kts | 56° |
| 2026-04-29 20:21 | 43.66770 | 75.79145 | 19842 ft | 422 kts | 43° |
| 2026-04-29 20:21 | 43.68924 | 75.81880 | 19602 ft | 420 kts | 41° |
| 2026-04-29 20:21 | 43.71094 | 75.84569 | 19367 ft | 418 kts | 41° |
| 2026-04-29 20:21 | 43.73224 | 75.87236 | 19240 ft | 406 kts | 41° |
| 2026-04-29 20:22 | 43.75271 | 75.89827 | 19141 ft | 392 kts | 42° |
| 2026-04-29 20:22 | 43.77246 | 75.92342 | 19040 ft | 379 kts | 42° |
| 2026-04-29 20:22 | 43.79150 | 75.94777 | 18945 ft | 368 kts | 42° |
| 2026-04-29 20:22 | 43.81023 | 75.97177 | 18554 ft | 367 kts | 42° |
| 2026-04-29 20:23 | 43.82888 | 75.99615 | 18076 ft | 368 kts | 45° |
| 2026-04-29 20:23 | 43.83988 | 76.01399 | 17835 ft | 366 kts | 53° |
| 2026-04-29 20:23 | 43.85945 | 76.05223 | 17816 ft | 368 kts | 55° |
| 2026-04-29 20:23 | 43.87366 | 76.08146 | 17812 ft | 363 kts | 58° |
| 2026-04-29 20:24 | 43.88368 | 76.11373 | 17780 ft | 368 kts | 77° |
| 2026-04-29 20:24 | 43.88512 | 76.14895 | 17705 ft | 368 kts | 97° |
| 2026-04-29 20:24 | 43.88090 | 76.17212 | 17579 ft | 366 kts | 111° |
| 2026-04-29 20:24 | 43.86773 | 76.20195 | 17125 ft | 366 kts | 133° |
| 2026-04-29 20:25 | 43.84762 | 76.22314 | 16757 ft | 365 kts | 153° |
| 2026-04-29 20:25 | 43.82369 | 76.23333 | 16479 ft | 364 kts | 173° |
| 2026-04-29 20:25 | 43.79878 | 76.23299 | 16221 ft | 363 kts | 185° |
| 2026-04-29 20:25 | 43.77372 | 76.23028 | 15948 ft | 359 kts | 180° |
| 2026-04-29 20:26 | 43.74910 | 76.23515 | 15701 ft | 359 kts | 161° |
| 2026-04-29 20:26 | 43.72594 | 76.24783 | 15504 ft | 358 kts | 156° |
| 2026-04-29 20:26 | 43.70328 | 76.26188 | 15253 ft | 355 kts | 155° |
| 2026-04-29 20:26 | 43.68076 | 76.27596 | 14917 ft | 355 kts | 155° |
| 2026-04-29 20:27 | 43.65838 | 76.28990 | 14641 ft | 351 kts | 155° |
| 2026-04-29 20:27 | 43.64330 | 76.29925 | 14473 ft | 351 kts | 155° |
| 2026-04-29 20:27 | 43.61383 | 76.31749 | 14150 ft | 348 kts | 155° |
| 2026-04-29 20:27 | 43.59112 | 76.32873 | 13961 ft | 348 kts | 165° |
| 2026-04-29 20:28 | 43.56761 | 76.33668 | 13798 ft | 345 kts | 167° |
| 2026-04-29 20:28 | 43.54425 | 76.34402 | 13375 ft | 344 kts | 167° |
| 2026-04-29 20:28 | 43.52093 | 76.35132 | 12924 ft | 343 kts | 167° |
| 2026-04-29 20:28 | 43.49774 | 76.35871 | 12509 ft | 341 kts | 165° |
| 2026-04-29 20:29 | 43.47587 | 76.37073 | 12102 ft | 338 kts | 148° |
| 2026-04-29 20:29 | 43.45780 | 76.39088 | 11886 ft | 330 kts | 136° |
| 2026-04-29 20:29 | 43.44148 | 76.41233 | 11731 ft | 320 kts | 136° |
| 2026-04-29 20:29 | 43.42586 | 76.43307 | 11616 ft | 311 kts | 136° |
| 2026-04-29 20:30 | 43.41047 | 76.45345 | 11443 ft | 303 kts | 136° |
| 2026-04-29 20:30 | 43.39533 | 76.47339 | 11108 ft | 300 kts | 136° |
| 2026-04-29 20:30 | 43.38031 | 76.49311 | 10632 ft | 295 kts | 136° |
| 2026-04-29 20:30 | 43.36573 | 76.51225 | 10163 ft | 284 kts | 136° |
| 2026-04-29 20:31 | 43.35166 | 76.53068 | 9689 ft | 275 kts | 137° |
| 2026-04-29 20:31 | 43.33800 | 76.54856 | 9255 ft | 268 kts | 136° |
| 2026-04-29 20:31 | 43.32457 | 76.56610 | 8880 ft | 265 kts | 136° |
| 2026-04-29 20:31 | 43.31112 | 76.58368 | 8495 ft | 268 kts | 136° |
| 2026-04-29 20:32 | 43.29751 | 76.60144 | 8127 ft | 271 kts | 136° |
| 2026-04-29 20:32 | 43.28391 | 76.61918 | 7749 ft | 267 kts | 136° |
| 2026-04-29 20:32 | 43.27096 | 76.63683 | 7395 ft | 256 kts | 130° |
| 2026-04-29 20:32 | 43.26241 | 76.65722 | 7101 ft | 248 kts | 108° |
| 2026-04-29 20:33 | 43.25788 | 76.68008 | 6799 ft | 249 kts | 103° |
| 2026-04-29 20:33 | 43.25412 | 76.70330 | 6542 ft | 248 kts | 102° |
| 2026-04-29 20:33 | 43.25041 | 76.72637 | 6297 ft | 247 kts | 102° |
| 2026-04-29 20:33 | 43.24668 | 76.74928 | 6047 ft | 245 kts | 103° |
| 2026-04-29 20:34 | 43.24295 | 76.77201 | 5819 ft | 244 kts | 103° |
| 2026-04-29 20:34 | 43.23982 | 76.79481 | 5563 ft | 242 kts | 94° |
| 2026-04-29 20:34 | 43.24236 | 76.81726 | 5366 ft | 238 kts | 66° |
| 2026-04-29 20:34 | 43.25065 | 76.83663 | 5224 ft | 233 kts | 55° |
| 2026-04-29 20:35 | 43.26010 | 76.85447 | 5039 ft | 229 kts | 54° |
| 2026-04-29 20:35 | 43.26930 | 76.87233 | 4738 ft | 228 kts | 57° |
| 2026-04-29 20:35 | 43.27803 | 76.89007 | 4409 ft | 220 kts | 57° |
| 2026-04-29 20:35 | 43.28640 | 76.90699 | 4121 ft | 207 kts | 56° |
| 2026-04-29 20:36 | 43.29413 | 76.92250 | 3892 ft | 188 kts | 56° |
| 2026-04-29 20:36 | 43.30119 | 76.93672 | 3617 ft | 172 kts | 57° |
| 2026-04-29 20:36 | 43.30752 | 76.94951 | 3425 ft | 157 kts | 56° |
| 2026-04-29 20:36 | 43.31341 | 76.96138 | 3231 ft | 146 kts | 56° |
| 2026-04-29 20:37 | 43.31911 | 76.97289 | 3035 ft | 146 kts | 56° |
| 2026-04-29 20:37 | 43.32483 | 76.98444 | 2836 ft | 147 kts | 56° |
| 2026-04-29 20:37 | 43.33065 | 76.99602 | 2640 ft | 147 kts | 56° |
| 2026-04-29 20:37 | 43.33634 | 77.00761 | 2453 ft | 145 kts | 57° |
| 2026-04-29 20:38 | 43.34195 | 77.01892 | 2264 ft | 141 kts | 55° |
| 2026-04-29 20:38 | 43.34699 | 77.02899 | 2224 ft | 105 kts | 56° |
| 2026-04-29 20:38 | 43.35010 | 77.03532 | 2228 ft | 55 kts | 56° |
| 2026-04-29 20:38 | 43.35143 | 77.03795 | 2229 ft | 25 kts | 50° |
| 2026-04-29 20:39 | 43.35240 | 77.03906 | 2225 ft | 17 kts | 32° |
| 2026-04-29 20:39 | 43.35349 | 77.03982 | 2225 ft | 18 kts | 25° |
| 2026-04-29 20:39 | 43.35432 | 77.04017 | 2227 ft | 8 kts | 349° |
| 2026-04-29 20:39 | 43.35447 | 77.03960 | 2225 ft | 9 kts | 259° |
| 2026-04-29 20:40 | 43.35394 | 77.03843 | 2225 ft | 21 kts | 237° |
| 2026-04-29 20:40 | 43.35309 | 77.03665 | 2227 ft | 23 kts | 237° |
| 2026-04-29 20:40 | 43.35223 | 77.03492 | 2229 ft | 22 kts | 236° |
| 2026-04-29 20:40 | 43.35134 | 77.03313 | 2229 ft | 24 kts | 235° |
| 2026-04-29 20:41 | 43.35039 | 77.03126 | 2224 ft | 24 kts | 235° |
| 2026-04-29 20:41 | 43.34940 | 77.02930 | 2225 ft | 25 kts | 236° |
| 2026-04-29 20:41 | 43.34841 | 77.02730 | 2227 ft | 25 kts | 236° |
| 2026-04-29 20:41 | 43.34776 | 77.02587 | 2226 ft | 11 kts | 250° |
| 2026-04-29 20:42 | 43.34774 | 77.02477 | 2226 ft | 12 kts | 273° |
| 2026-04-29 20:42 | 43.34780 | 77.02344 | 2233 ft | 16 kts | 274° |
| 2026-04-29 20:42 | 43.34788 | 77.02183 | 2232 ft | 18 kts | 274° |
| 2026-04-29 20:42 | 43.34797 | 77.02007 | 2233 ft | 19 kts | 274° |
| 2026-04-29 20:43 | 43.34805 | 77.01826 | 2233 ft | 19 kts | 274° |
| 2026-04-29 20:43 | 43.34814 | 77.01641 | 2225 ft | 20 kts | 274° |
| 2026-04-29 20:43 | 43.34825 | 77.01537 | 2233 ft | 7 kts | 298° |
| 2026-04-29 20:43 | 43.34865 | 77.01505 | 2230 ft | 8 kts | 339° |
| 2026-04-29 20:44 | 43.34923 | 77.01472 | 2231 ft | 11 kts | 336° |
| 2026-04-29 20:44 | 43.34981 | 77.01437 | 2230 ft | 7 kts | 336° |
| 2026-04-29 20:44 | 43.34992 | 77.01408 | 2226 ft | 3 kts | 266° |
| 2026-04-29 20:44 | 43.34980 | 77.01358 | 2230 ft | 6 kts | 248° |
| 2026-04-29 20:45 | 43.34971 | 77.01328 | 2226 ft | 3 kts | 246° |
| 2026-04-29 20:45 | 43.34965 | 77.01310 | 2228 ft | 1 kts | 246° |
| 2026-04-29 20:45 | 43.34962 | 77.01301 | 2223 ft | 0 kts | 246° |